Maersk Suzhou — D5KN6 — position and weather

sailwx.info

Track history (hours):
 
Tides and Currents Weather Stations Pressure Air Temp Water Temp Dewpoint Dewpoint Depression Visibility Wind Speed Wind Dir Waves Ship Positions

Maersk Suzhou

Last reported at 2018-Jul-14 10:53 UTC. Time now 2018-Jul-15 20:44 UTC.
Position N 36°20' E 015°19'.

Length 323 m; draft 14.5 m.

Type: Cargo ship. MMSI: 636017358.

Date/timePositionNaut miles runAvg speedWind from/ knotsBaromVisibWave heightAir tempDewpointWater temp
2018-Jul-14 10:53N 36°20' E 015°19'615.6
2018-Jul-14 10:30N 36°21' E 015°12'816.0
2018-Jul-14 10:00N 36°23' E 015°02'916.3
2018-Jul-14 09:28N 36°26' E 014°52'816.5
2018-Jul-14 09:00N 36°28' E 014°43'816.7
2018-Jul-14 08:30N 36°30' E 014°33'816.7
2018-Jul-14 08:00N 36°32' E 014°23'816.6
2018-Jul-14 07:30N 36°34' E 014°13'815.8
2018-Jul-14 07:00N 36°36' E 014°03'815.1
2018-Jul-14 06:30N 36°37' E 013°54'816.0
2018-Jul-14 06:00N 36°39' E 013°44'815.8
2018-Jul-14 05:30N 36°41' E 013°34'816.0
2018-Jul-14 05:00N 36°43' E 013°25'816.0
2018-Jul-14 04:29N 36°45' E 013°15'816.0
2018-Jul-14 03:59N 36°47' E 013°05'815.8
2018-Jul-14 03:30N 36°48' E 012°56'815.9
2018-Jul-14 03:00N 36°50' E 012°46'815.9
2018-Jul-14 02:28N 36°52' E 012°36'815.8
2018-Jul-14 02:00N 36°54' E 012°27'815.7
2018-Jul-14 01:30N 36°56' E 012°17'815.9
2018-Jul-14 01:00N 36°58' E 012°08'816.2
2018-Jul-14 00:30N 37°02' E 011°59'1116.2
2018-Jul-13 23:50N 37°06' E 011°47'3416.3
2018-Jul-13 21:44N 37°22' E 011°08'416.2
2018-Jul-13 21:30N 37°23' E 011°04'1016.1
2018-Jul-13 20:52N 37°26' E 010°51'616.1
2018-Jul-13 20:30N 37°28' E 010°44'1116.1
2018-Jul-13 19:49N 37°30' E 010°31'615.9
2018-Jul-13 19:27N 37°31' E 010°24'715.7
2018-Jul-13 19:00N 37°33' E 010°15'16715.8
2018-Jul-13 08:24N 37°28' E 006°44'916.2
2018-Jul-13 07:50N 37°26' E 006°33'916.2
2018-Jul-13 07:15N 37°25' E 006°21'416.1
2018-Jul-13 07:00N 37°24' E 006°16'816.0
2018-Jul-13 06:29N 37°23' E 006°06'815.7
2018-Jul-13 06:00N 37°22' E 005°56'815.4
2018-Jul-13 05:30N 37°21' E 005°47'815.4
2018-Jul-13 05:00N 37°20' E 005°37'815.3
2018-Jul-13 04:28N 37°19' E 005°27'715.6
2018-Jul-13 04:00N 37°18' E 005°18'815.8
2018-Jul-13 03:29N 37°17' E 005°08'816.2
2018-Jul-13 03:00N 37°16' E 004°58'816.4
2018-Jul-13 02:30N 37°15' E 004°48'816.2
2018-Jul-13 02:00N 37°14' E 004°38'816.1
2018-Jul-13 01:30N 37°13' E 004°27'816.4
2018-Jul-13 01:00N 37°13' E 004°17'916.4
2018-Jul-13 00:28N 37°13' E 004°06'815.8
2018-Jul-12 23:59N 37°12' E 003°57'815.5
2018-Jul-12 23:30N 37°10' E 003°47'1015.3
2018-Jul-12 22:50N 37°09' E 003°35'615.2
2018-Jul-12 22:28N 37°08' E 003°28'715.5
2018-Jul-12 22:00N 37°08' E 003°19'815.6
2018-Jul-12 21:30N 37°06' E 003°09'815.9
2018-Jul-12 21:00N 37°05' E 002°59'816.0
2018-Jul-12 20:30N 37°04' E 002°49'816.1
2018-Jul-12 20:00N 37°02' E 002°39'816.1
2018-Jul-12 19:30N 37°02' E 002°29'816.4
2018-Jul-12 19:00N 37°01' E 002°19'816.6
2018-Jul-12 18:30N 36°60' E 002°09'816.9
2018-Jul-12 18:00N 36°58' E 001°58'916.9
2018-Jul-12 17:30N 36°57' E 001°48'816.6
2018-Jul-12 17:00N 36°56' E 001°38'816.5
2018-Jul-12 16:30N 36°55' E 001°27'816.2
2018-Jul-12 16:00N 36°54' E 001°17'816.0
2018-Jul-12 15:30N 36°53' E 001°07'816.0
2018-Jul-12 15:00N 36°51' E 000°58'815.7
2018-Jul-12 14:30N 36°50' E 000°48'815.7
2018-Jul-12 14:00N 36°49' E 000°38'815.7
2018-Jul-12 13:30N 36°48' E 000°28'815.7
2018-Jul-12 13:00N 36°47' E 000°19'816.0
2018-Jul-12 12:30N 36°45' E 000°09'2815.9
2018-Jul-12 10:46N 36°39' W 000°24'415.3
2018-Jul-12 10:30N 36°38' W 000°29'815.3
2018-Jul-12 10:00N 36°37' W 000°39'1015.5
2018-Jul-12 09:23N 36°35' W 000°50'1715.6
2018-Jul-12 08:19N 36°32' W 001°11'515.5
2018-Jul-12 08:00N 36°31' W 001°17'816.2
2018-Jul-12 07:29N 36°29' W 001°27'817.2
2018-Jul-12 07:00N 36°27' W 001°37'36716.9
2018-Jul-11 09:19N 36°00' W 009°10'17716.7
2018-Jul-10 22:46N 37°04' W 012°35'416.6
2018-Jul-10 22:30N 37°06' W 012°40'76816.4
2018-Jul-08 23:43N 40°30' W 028°31'2516.3
2018-Jul-08 22:11N 40°35' W 029°03'5716.4
2018-Jul-08 18:43N 40°44' W 030°17'416.9
2018-Jul-08 18:29N 40°45' W 030°22'  
Track history (hours):
 
Tides and Currents Weather Stations Pressure Air Temp Water Temp Dewpoint Dewpoint Depression Visibility Wind Speed Wind Dir Waves Ship Positions

Maersk Suzhou

Last reported at 2018-Jul-14 10:53 UTC. Time now 2018-Jul-15 20:44 UTC.
Position N 36°20' E 015°19'.

Length 323 m; draft 14.5 m.

Type: Cargo ship. MMSI: 636017358.

Date/timePositionNaut miles runAvg speedWind from/ knotsBaromVisibWave heightAir tempDewpointWater temp
2018-Jul-14 10:53N 36°20' E 015°19'615.6
2018-Jul-14 10:30N 36°21' E 015°12'816.0
2018-Jul-14 10:00N 36°23' E 015°02'916.3
2018-Jul-14 09:28N 36°26' E 014°52'816.5
2018-Jul-14 09:00N 36°28' E 014°43'816.7
2018-Jul-14 08:30N 36°30' E 014°33'816.7
2018-Jul-14 08:00N 36°32' E 014°23'816.6
2018-Jul-14 07:30N 36°34' E 014°13'815.8
2018-Jul-14 07:00N 36°36' E 014°03'815.1
2018-Jul-14 06:30N 36°37' E 013°54'816.0
2018-Jul-14 06:00N 36°39' E 013°44'815.8
2018-Jul-14 05:30N 36°41' E 013°34'816.0
2018-Jul-14 05:00N 36°43' E 013°25'816.0
2018-Jul-14 04:29N 36°45' E 013°15'816.0
2018-Jul-14 03:59N 36°47' E 013°05'815.8
2018-Jul-14 03:30N 36°48' E 012°56'815.9
2018-Jul-14 03:00N 36°50' E 012°46'815.9
2018-Jul-14 02:28N 36°52' E 012°36'815.8
2018-Jul-14 02:00N 36°54' E 012°27'815.7
2018-Jul-14 01:30N 36°56' E 012°17'815.9
2018-Jul-14 01:00N 36°58' E 012°08'816.2
2018-Jul-14 00:30N 37°02' E 011°59'1116.2
2018-Jul-13 23:50N 37°06' E 011°47'3416.3
2018-Jul-13 21:44N 37°22' E 011°08'416.2
2018-Jul-13 21:30N 37°23' E 011°04'1016.1
2018-Jul-13 20:52N 37°26' E 010°51'616.1
2018-Jul-13 20:30N 37°28' E 010°44'1116.1
2018-Jul-13 19:49N 37°30' E 010°31'615.9
2018-Jul-13 19:27N 37°31' E 010°24'715.7
2018-Jul-13 19:00N 37°33' E 010°15'16715.8
2018-Jul-13 08:24N 37°28' E 006°44'916.2
2018-Jul-13 07:50N 37°26' E 006°33'916.2
2018-Jul-13 07:15N 37°25' E 006°21'416.1
2018-Jul-13 07:00N 37°24' E 006°16'816.0
2018-Jul-13 06:29N 37°23' E 006°06'815.7
2018-Jul-13 06:00N 37°22' E 005°56'815.4
2018-Jul-13 05:30N 37°21' E 005°47'815.4
2018-Jul-13 05:00N 37°20' E 005°37'815.3
2018-Jul-13 04:28N 37°19' E 005°27'715.6
2018-Jul-13 04:00N 37°18' E 005°18'815.8
2018-Jul-13 03:29N 37°17' E 005°08'816.2
2018-Jul-13 03:00N 37°16' E 004°58'816.4
2018-Jul-13 02:30N 37°15' E 004°48'816.2
2018-Jul-13 02:00N 37°14' E 004°38'816.1
2018-Jul-13 01:30N 37°13' E 004°27'816.4
2018-Jul-13 01:00N 37°13' E 004°17'916.4
2018-Jul-13 00:28N 37°13' E 004°06'815.8
2018-Jul-12 23:59N 37°12' E 003°57'815.5
2018-Jul-12 23:30N 37°10' E 003°47'1015.3
2018-Jul-12 22:50N 37°09' E 003°35'615.2
2018-Jul-12 22:28N 37°08' E 003°28'715.5
2018-Jul-12 22:00N 37°08' E 003°19'815.6
2018-Jul-12 21:30N 37°06' E 003°09'815.9
2018-Jul-12 21:00N 37°05' E 002°59'816.0
2018-Jul-12 20:30N 37°04' E 002°49'816.1
2018-Jul-12 20:00N 37°02' E 002°39'816.1
2018-Jul-12 19:30N 37°02' E 002°29'816.4
2018-Jul-12 19:00N 37°01' E 002°19'816.6
2018-Jul-12 18:30N 36°60' E 002°09'816.9
2018-Jul-12 18:00N 36°58' E 001°58'916.9
2018-Jul-12 17:30N 36°57' E 001°48'816.6
2018-Jul-12 17:00N 36°56' E 001°38'816.5
2018-Jul-12 16:30N 36°55' E 001°27'816.2
2018-Jul-12 16:00N 36°54' E 001°17'816.0
2018-Jul-12 15:30N 36°53' E 001°07'816.0
2018-Jul-12 15:00N 36°51' E 000°58'815.7
2018-Jul-12 14:30N 36°50' E 000°48'815.7
2018-Jul-12 14:00N 36°49' E 000°38'815.7
2018-Jul-12 13:30N 36°48' E 000°28'815.7
2018-Jul-12 13:00N 36°47' E 000°19'816.0
2018-Jul-12 12:30N 36°45' E 000°09'2815.9
2018-Jul-12 10:46N 36°39' W 000°24'415.3
2018-Jul-12 10:30N 36°38' W 000°29'815.3
2018-Jul-12 10:00N 36°37' W 000°39'1015.5
2018-Jul-12 09:23N 36°35' W 000°50'1715.6
2018-Jul-12 08:19N 36°32' W 001°11'515.5
2018-Jul-12 08:00N 36°31' W 001°17'816.2
2018-Jul-12 07:29N 36°29' W 001°27'817.2
2018-Jul-12 07:00N 36°27' W 001°37'36716.9
2018-Jul-11 09:19N 36°00' W 009°10'17716.7
2018-Jul-10 22:46N 37°04' W 012°35'416.6
2018-Jul-10 22:30N 37°06' W 012°40'76816.4
2018-Jul-08 23:43N 40°30' W 028°31'2516.3
2018-Jul-08 22:11N 40°35' W 029°03'5716.4
2018-Jul-08 18:43N 40°44' W 030°17'416.9
2018-Jul-08 18:29N 40°45' W 030°22'  

Dump ship's entire track history